KSAV/SAV METAR and TAF weather

Enter ICAO airport designator
Station Type Date Time Source
KSAV METAR 2021/06/22 21:53 UTC NOAA

KSAV 222153Z 24009KT 10SM SCT009 BKN018 BKN037 BKN130 OVC240 25/22 A2992 RMK AO2 RAB2054E10 SLP130 P0000 T02500222


Station Type Date Time Source
KSAV Decoded METAR 2021/06/22 21:53 UTC NOAA

SAVANNAH INTERNATIONAL AIRPORT , GA, United States (KSAV) 32-07N 81-12W 14M
Jun 22, 2021 - 05:53 PM EDT / 2021.06.22 2153 UTC
Wind: from the WSW (240 degrees) at 10 MPH (9 KT):0
Visibility: 10 mile(s):0
Sky conditions: overcast
Precipitation last hour: A trace
Temperature: 77.0 F (25.0 C)
Dew Point: 72.0 F (22.2 C)
Relative Humidity: 84%
Pressure (altimeter): 29.92 in. Hg (1013 hPa)
ob: KSAV 222153Z 24009KT 10SM SCT009 BKN018 BKN037 BKN130 OVC240 25/22 A2992 RMK AO2 RAB2054E10 SLP130 P0000 T02500222
cycle: 22

Station Type Date Time Source
KSAV TAF 2021/06/22 18:31 UTC NOAA

TAF KSAV 221725Z 2218/2318 23010KT P6SM VCSH SCT010 BKN015
FM230500 23004KT 6SM BR SCT007 OVC020
FM231400 29007KT P6SM SCT030 BKN200

Example: see airport list